createdAt,value
2019-01-25T00:01:52.186Z,51.17
2019-01-25T00:04:36.643Z,50.10
2019-01-25T00:07:18.043Z,52.70
2019-01-25T00:09:59.348Z,50.00
2019-01-25T00:12:40.025Z,51.40
2019-01-25T00:15:21.584Z,52.63
2019-01-25T00:18:05.941Z,51.77
2019-01-25T00:20:47.080Z,50.83
2019-01-25T00:23:29.205Z,53.00
2019-01-25T00:26:10.651Z,51.43
2019-01-25T00:28:52.276Z,51.33
2019-01-25T00:31:35.413Z,54.40
2019-01-25T00:34:16.769Z,54.63
2019-01-25T00:36:58.230Z,54.07
2019-01-25T00:39:39.895Z,54.27
2019-01-25T00:42:20.858Z,54.17
2019-01-25T00:45:02.140Z,53.23
2019-01-25T00:47:43.558Z,52.47
2019-01-25T00:53:10.635Z,52.13
2019-01-25T00:55:52.662Z,52.37
2019-01-25T01:01:19.808Z,54.03
2019-01-25T01:04:01.405Z,56.50
2019-01-25T01:06:42.974Z,57.43
2019-01-25T01:09:27.866Z,57.67
2019-01-25T01:12:10.094Z,56.50
2019-01-25T01:14:51.975Z,59.90
2019-01-25T01:20:16.237Z,56.80
2019-01-25T01:25:44.022Z,56.10
2019-01-25T01:28:25.560Z,55.97
2019-01-25T01:31:08.545Z,55.20
2019-01-25T01:33:53.091Z,55.17
2019-01-25T01:39:19.347Z,56.33
2019-01-25T01:42:00.195Z,56.63
2019-01-25T01:44:41.704Z,54.57
2019-01-25T01:47:23.615Z,55.30
2019-01-25T01:50:05.959Z,55.70
2019-01-25T01:52:47.353Z,55.40
2019-01-25T01:58:17.421Z,55.73
2019-01-25T02:00:58.691Z,56.83
2019-01-25T02:03:39.567Z,58.10
2019-01-25T02:06:21.848Z,57.67
2019-01-25T02:09:02.708Z,53.50
2019-01-25T02:11:44.495Z,53.97
2019-01-25T02:14:25.762Z,54.43
2019-01-25T02:19:55.234Z,53.80
2019-01-25T02:22:39.122Z,55.03
2019-01-25T02:25:20.291Z,57.07
2019-01-25T02:28:01.663Z,59.13
2019-01-25T02:30:42.720Z,57.17
2019-01-25T02:33:23.564Z,59.53
2019-01-25T02:36:06.013Z,56.93
2019-01-25T02:38:47.646Z,60.57
2019-01-25T02:41:29.610Z,61.83
2019-01-25T02:44:12.961Z,60.27
2019-01-25T02:46:54.791Z,62.40
2019-01-25T02:49:37.155Z,60.63
2019-01-25T02:52:18.659Z,61.73
2019-01-25T02:55:03.563Z,61.10
2019-01-25T02:57:44.963Z,60.93
2019-01-25T03:00:26.189Z,58.67
2019-01-25T03:05:50.863Z,56.37
2019-01-25T03:08:33.966Z,62.50
2019-01-25T03:11:14.922Z,58.33
2019-01-25T03:13:56.622Z,58.47
2019-01-25T03:16:37.362Z,57.13
2019-01-25T03:19:18.929Z,59.30
2019-01-25T03:21:59.887Z,53.83
2019-01-25T03:24:40.636Z,56.17
2019-01-25T03:27:22.496Z,58.53
2019-01-25T03:30:03.851Z,56.30
2019-01-25T03:32:33.403Z,57.77
2019-01-25T03:35:23.861Z,59.13
2019-01-25T03:38:05.454Z,55.17
2019-01-25T03:40:54.765Z,58.80
2019-01-25T03:43:29.814Z,60.07
2019-01-25T03:46:13.236Z,57.80
2019-01-25T03:48:54.538Z,56.47
2019-01-25T03:51:37.439Z,54.07
2019-01-25T03:54:18.518Z,52.70
2019-01-25T03:57:01.883Z,56.60
2019-01-25T03:59:44.394Z,54.47
2019-01-25T04:02:25.774Z,55.03
2019-01-25T04:07:56.488Z,54.90
2019-01-25T04:10:37.870Z,56.93
2019-01-25T04:13:19.661Z,55.53
2019-01-25T04:16:01.116Z,57.67
2019-01-25T04:21:33.979Z,54.77
2019-01-25T04:24:14.949Z,51.53
2019-01-25T04:26:58.152Z,52.60
2019-01-25T04:32:24.421Z,55.40
2019-01-25T04:35:06.172Z,53.67
2019-01-25T04:37:47.083Z,55.40
2019-01-25T04:40:28.256Z,55.57
2019-01-25T04:43:09.701Z,54.00
2019-01-25T04:45:50.502Z,54.30
2019-01-25T04:48:31.217Z,52.23
2019-01-25T04:51:12.782Z,47.20
2019-01-25T04:53:54.863Z,49.43
2019-01-25T04:56:36.484Z,51.50
2019-01-25T04:59:17.581Z,49.13
2019-01-25T05:01:59.190Z,47.43
2019-01-25T05:04:41.635Z,52.30
2019-01-25T05:07:23.231Z,49.27
2019-01-25T05:10:04.420Z,50.30
2019-01-25T05:12:49.023Z,50.93
2019-01-25T05:15:29.266Z,53.67
2019-01-25T05:18:10.841Z,52.17
2019-01-25T05:20:52.255Z,53.00
2019-01-25T05:23:33.831Z,54.77
2019-01-25T05:26:15.490Z,53.93
2019-01-25T05:28:57.873Z,52.33
2019-01-25T05:31:39.307Z,55.33
2019-01-25T05:34:20.939Z,56.53
2019-01-25T05:37:02.667Z,51.33
2019-01-25T05:39:44.016Z,53.63
2019-01-25T05:42:24.978Z,53.27
2019-01-25T05:45:06.630Z,54.97
2019-01-25T05:47:47.317Z,54.37
2019-01-25T05:50:28.153Z,50.63
2019-01-25T05:53:09.982Z,50.70
2019-01-25T05:55:51.336Z,53.53
2019-01-25T05:58:34.932Z,54.83
2019-01-25T06:01:16.750Z,49.97
2019-01-25T06:03:58.989Z,51.30
2019-01-25T06:06:40.309Z,52.57
2019-01-25T06:09:21.971Z,52.77
2019-01-25T06:12:03.122Z,50.87
2019-01-25T06:14:44.610Z,53.27
2019-01-25T06:20:12.020Z,52.00
2019-01-25T06:22:54.652Z,51.70
2019-01-25T06:25:35.574Z,52.07
2019-01-25T06:28:16.514Z,54.13
2019-01-25T06:30:58.283Z,51.33
2019-01-25T06:33:40.309Z,51.47
2019-01-25T06:36:21.777Z,53.03
2019-01-25T06:39:05.341Z,53.70
2019-01-25T06:41:46.799Z,52.40
2019-01-25T06:44:28.944Z,49.00
2019-01-25T06:47:10.305Z,54.17
2019-01-25T06:49:51.366Z,50.30
2019-01-25T06:52:33.318Z,51.30
2019-01-25T06:55:14.750Z,51.13
2019-01-25T07:01:09.945Z,48.73
2019-01-25T07:03:51.489Z,48.80
2019-01-25T07:06:33.208Z,47.23
2019-01-25T07:09:14.754Z,44.97
2019-01-25T07:11:56.554Z,45.90
2019-01-25T07:14:37.747Z,46.30
2019-01-25T07:17:21.103Z,55.20
2019-01-25T07:20:03.011Z,44.97
2019-01-25T07:22:45.069Z,46.80
2019-01-25T07:25:26.386Z,45.70
2019-01-25T07:28:11.009Z,47.77
2019-01-25T07:33:36.923Z,45.60
2019-01-25T07:36:17.924Z,47.80
2019-01-25T07:38:58.683Z,45.23
2019-01-25T07:41:42.220Z,44.87
2019-01-25T07:44:23.771Z,46.77
2019-01-25T07:47:05.008Z,47.10
2019-01-25T07:49:47.753Z,46.30
2019-01-25T07:52:29.277Z,45.83
2019-01-25T07:55:10.894Z,50.07
2019-01-25T07:57:53.038Z,47.30
2019-01-25T08:00:34.537Z,46.17
2019-01-25T08:03:16.040Z,48.93
2019-01-25T08:05:59.366Z,47.30
2019-01-25T08:08:41.143Z,49.03
2019-01-25T08:11:22.935Z,47.37
2019-01-25T08:14:04.272Z,49.47
2019-01-25T08:16:48.384Z,53.87
2019-01-25T08:19:29.804Z,51.63
2019-01-25T08:22:11.244Z,51.37
2019-01-25T08:24:52.951Z,52.87
2019-01-25T08:30:19.762Z,53.77
2019-01-25T08:33:01.169Z,49.73
2019-01-25T08:35:43.011Z,51.17
2019-01-25T08:38:24.169Z,52.40
2019-01-25T08:41:05.821Z,55.07
2019-01-25T08:43:46.906Z,53.80
2019-01-25T08:46:28.964Z,55.03
2019-01-25T08:49:13.157Z,52.67
2019-01-25T08:51:54.221Z,53.37
2019-01-25T08:54:35.395Z,52.77
2019-01-25T08:57:16.378Z,59.43
2019-01-25T08:59:59.470Z,54.33
2019-01-25T09:02:41.450Z,58.07
2019-01-25T09:05:24.442Z,55.73
2019-01-25T09:10:48.450Z,55.50
2019-01-25T09:13:32.056Z,60.17
2019-01-25T09:16:13.560Z,56.47
2019-01-25T09:18:54.465Z,54.63
2019-01-25T09:24:18.917Z,54.60
2019-01-25T09:26:59.991Z,54.93
2019-01-25T09:29:40.873Z,54.47
2019-01-25T09:37:50.617Z,48.60
2019-01-25T09:40:32.018Z,51.73
2019-01-25T09:45:57.147Z,49.40
2019-01-25T09:48:45.934Z,45.87
2019-01-25T09:51:27.569Z,48.73
2019-01-25T09:54:08.695Z,49.47
2019-01-25T09:56:50.454Z,50.97
2019-01-25T09:59:31.908Z,50.63
2019-01-25T10:02:16.180Z,50.43
2019-01-25T10:04:57.293Z,50.50
2019-01-25T10:07:38.634Z,53.57
2019-01-25T10:10:23.411Z,51.50
2019-01-25T10:13:04.174Z,51.50
2019-01-25T10:15:45.479Z,52.03
2019-01-25T10:18:29.850Z,55.23
2019-01-25T10:21:12.631Z,53.30
2019-01-25T10:23:53.676Z,49.37
2019-01-25T10:26:36.273Z,53.70
2019-01-25T10:29:17.078Z,53.77
2019-01-25T10:31:59.362Z,55.50
2019-01-25T10:34:41.527Z,52.90
2019-01-25T10:37:11.007Z,54.03
2019-01-25T10:40:01.497Z,50.20
2019-01-25T10:42:53.086Z,50.27
2019-01-25T10:45:30.821Z,52.07
2019-01-25T10:48:12.313Z,50.00
2019-01-25T10:50:53.830Z,49.93
2019-01-25T10:53:35.195Z,50.03
2019-01-25T10:56:16.580Z,48.93
2019-01-25T10:58:58.605Z,50.17
2019-01-25T11:01:40.108Z,49.40
2019-01-25T11:04:21.697Z,50.00
2019-01-25T11:07:03.524Z,49.70
2019-01-25T11:09:44.818Z,48.57
2019-01-25T11:12:25.868Z,44.80
2019-01-25T11:17:55.407Z,45.87
2019-01-25T11:20:37.694Z,43.17
2019-01-25T11:23:19.823Z,44.53
2019-01-25T11:26:01.397Z,44.80
2019-01-25T11:28:42.129Z,43.53
2019-01-25T11:31:23.324Z,40.53
2019-01-25T11:34:05.250Z,39.70
2019-01-25T11:36:46.118Z,37.90
2019-01-25T11:39:26.797Z,36.67
2019-01-25T11:42:08.319Z,36.33
2019-01-25T11:44:49.921Z,34.20
2019-01-25T11:47:32.085Z,33.37
2019-01-25T11:50:12.941Z,34.63
2019-01-25T11:55:34.222Z,33.77
2019-01-25T11:58:16.513Z,32.33
2019-01-25T12:00:56.393Z,31.23
2019-01-25T12:03:37.914Z,32.63
2019-01-25T12:06:19.339Z,31.33
2019-01-25T12:09:00.170Z,31.67
2019-01-25T12:11:41.932Z,29.10
2019-01-25T12:14:23.337Z,32.47
2019-01-25T12:17:04.543Z,31.23
2019-01-25T12:19:45.593Z,32.20
2019-01-25T12:22:27.182Z,32.13
2019-01-25T12:25:08.827Z,31.83
2019-01-25T12:27:50.096Z,33.63
2019-01-25T12:30:31.915Z,32.97
2019-01-25T12:36:00.433Z,30.47
2019-01-25T12:38:42.021Z,32.77
2019-01-25T12:41:22.029Z,35.83
2019-01-25T12:44:04.096Z,35.97
2019-01-25T12:46:45.811Z,34.40
2019-01-25T12:49:26.922Z,36.63
2019-01-25T12:52:08.644Z,36.37
2019-01-25T12:54:51.119Z,36.40
2019-01-25T12:57:31.950Z,36.93
2019-01-25T13:00:12.409Z,39.77
2019-01-25T13:02:53.086Z,41.60
2019-01-25T13:08:19.704Z,41.37
2019-01-25T13:13:49.910Z,40.53
2019-01-25T13:16:31.009Z,41.50
2019-01-25T13:19:12.717Z,40.13
2019-01-25T13:24:37.947Z,40.47
2019-01-25T13:30:03.185Z,38.90
2019-01-25T13:32:44.826Z,40.73
2019-01-25T13:35:27.151Z,41.33
2019-01-25T13:38:08.379Z,41.93
2019-01-25T13:40:49.640Z,42.03
2019-01-25T13:43:31.372Z,41.60
2019-01-25T13:46:12.795Z,41.17
2019-01-25T13:48:55.343Z,42.07
2019-01-25T13:54:21.651Z,39.80
2019-01-25T13:59:47.022Z,38.60
2019-01-25T14:02:28.775Z,36.77
2019-01-25T14:05:09.869Z,38.37
2019-01-25T14:10:35.995Z,38.77
2019-01-25T14:13:17.914Z,38.07
2019-01-25T14:15:59.089Z,39.27
2019-01-25T14:18:44.844Z,38.87
2019-01-25T14:21:26.417Z,37.50
2019-01-25T14:24:08.815Z,40.13
2019-01-25T14:26:49.812Z,39.57
2019-01-25T14:32:14.366Z,39.10
2019-01-25T14:37:38.919Z,39.30
2019-01-25T14:40:21.121Z,41.90
2019-01-25T14:43:03.183Z,39.50
2019-01-25T14:45:44.790Z,37.67
2019-01-25T14:48:26.690Z,41.33
2019-01-25T14:51:07.718Z,38.30
2019-01-25T14:53:51.070Z,39.27
2019-01-25T14:56:32.807Z,39.67
2019-01-25T14:59:14.210Z,37.60
2019-01-25T15:01:55.647Z,41.07
2019-01-25T15:04:38.287Z,38.57
2019-01-25T15:07:20.517Z,42.87
2019-01-25T15:10:03.438Z,40.43
2019-01-25T15:12:44.959Z,39.50
2019-01-25T15:15:26.476Z,40.20
2019-01-25T15:20:54.032Z,39.20
2019-01-25T15:26:23.192Z,39.80
2019-01-25T15:29:06.074Z,40.77
2019-01-25T15:31:47.654Z,40.17
2019-01-25T15:34:29.129Z,41.40
2019-01-25T15:37:10.904Z,41.13
2019-01-25T15:39:51.934Z,40.60
2019-01-25T15:42:32.706Z,44.13
2019-01-25T15:47:59.901Z,45.07
2019-01-25T15:53:23.801Z,42.17
2019-01-25T15:56:03.545Z,40.33
2019-01-25T16:02:09.967Z,40.87
2019-01-25T16:04:58.531Z,42.27
2019-01-25T16:07:39.786Z,43.00
2019-01-25T16:10:21.718Z,42.50
2019-01-25T16:13:06.305Z,41.37
2019-01-25T16:15:48.018Z,43.17
2019-01-25T16:18:29.597Z,44.57
2019-01-25T16:21:12.652Z,43.33
2019-01-25T16:23:53.913Z,66.60
2019-01-25T16:26:35.142Z,43.60
2019-01-25T16:29:17.648Z,51.03
2019-01-25T16:31:59.525Z,46.30
2019-01-25T16:40:45.071Z,41.60
2019-01-25T16:43:26.430Z,40.03
2019-01-25T16:46:07.587Z,44.43
2019-01-25T16:51:32.533Z,42.80
2019-01-25T16:54:15.848Z,41.30
2019-01-25T16:56:57.012Z,39.23
2019-01-25T17:02:16.306Z,38.90
2019-01-25T17:05:05.976Z,40.70
2019-01-25T17:07:48.468Z,40.10
2019-01-25T17:10:30.796Z,39.67
2019-01-25T17:13:12.385Z,38.17
2019-01-25T17:15:54.398Z,40.77
2019-01-25T17:18:38.951Z,42.27
2019-01-25T17:21:21.747Z,43.90
2019-01-25T17:24:02.800Z,47.20
2019-01-25T17:26:43.577Z,43.57
2019-01-25T17:29:25.230Z,41.47
2019-01-25T17:32:07.883Z,39.70
2019-01-25T17:34:51.988Z,42.03
2019-01-25T17:37:33.137Z,39.37
2019-01-25T17:40:14.528Z,42.73
2019-01-25T17:45:42.978Z,41.70
2019-01-25T17:48:24.250Z,38.57
2019-01-25T17:51:06.267Z,38.57
2019-01-25T17:53:49.181Z,36.70
2019-01-25T17:56:30.235Z,40.70
2019-01-25T17:59:11.511Z,41.77
2019-01-25T18:01:53.288Z,40.30
2019-01-25T18:04:33.906Z,39.37
2019-01-25T18:07:13.743Z,35.70
2019-01-25T18:09:55.190Z,43.63
2019-01-25T18:12:36.832Z,42.77
2019-01-25T18:15:18.404Z,42.40
2019-01-25T18:18:00.043Z,43.13
2019-01-25T18:20:41.591Z,39.77
2019-01-25T18:23:22.646Z,45.30
2019-01-25T18:26:03.600Z,39.07
2019-01-25T18:28:45.096Z,39.93
2019-01-25T18:31:26.416Z,38.77
2019-01-25T18:34:10.280Z,43.37
2019-01-25T18:36:51.969Z,43.27
2019-01-25T18:39:33.583Z,40.20
2019-01-25T18:42:15.078Z,42.17
2019-01-25T18:44:57.028Z,44.80
2019-01-25T18:47:38.465Z,43.17
2019-01-25T18:50:19.223Z,43.20
2019-01-25T18:53:01.749Z,44.57
2019-01-25T18:55:42.992Z,42.10
2019-01-25T18:58:26.231Z,42.67
2019-01-25T19:01:07.309Z,42.23
2019-01-25T19:03:48.273Z,44.87
2019-01-25T19:06:29.616Z,42.13
2019-01-25T19:09:10.617Z,43.77
2019-01-25T19:11:52.561Z,42.53
2019-01-25T19:14:33.808Z,54.83
2019-01-25T19:17:15.293Z,44.57
2019-01-25T19:22:44.737Z,41.70
2019-01-25T19:28:10.475Z,43.73
2019-01-25T19:39:19.207Z,44.00
2019-01-25T19:42:00.286Z,59.97
2019-01-25T19:44:40.908Z,42.23
2019-01-25T19:47:21.556Z,42.03
2019-01-25T19:50:05.915Z,43.17
2019-01-25T19:52:47.742Z,39.40
2019-01-25T19:55:28.712Z,50.37
2019-01-25T19:58:10.419Z,43.03
2019-01-25T20:00:52.333Z,43.57
2019-01-25T20:03:35.976Z,42.37
2019-01-25T20:06:17.493Z,41.00
2019-01-25T20:08:59.325Z,45.50
2019-01-25T20:11:44.351Z,42.07
2019-01-25T20:17:12.307Z,39.23
2019-01-25T20:19:54.139Z,39.60
2019-01-25T20:22:35.459Z,43.10
2019-01-25T20:25:18.156Z,38.60
2019-01-25T20:28:00.680Z,39.23
2019-01-25T20:30:49.545Z,38.47
2019-01-25T20:33:15.132Z,37.00
2019-01-25T20:39:07.904Z,37.27
2019-01-25T20:41:56.669Z,40.50
2019-01-25T20:44:40.095Z,38.80
2019-01-25T20:47:22.116Z,37.70
2019-01-25T20:50:02.648Z,38.87
2019-01-25T20:55:26.882Z,36.70
2019-01-25T21:00:56.982Z,37.83
2019-01-25T21:06:24.814Z,37.97
2019-01-25T21:09:06.892Z,35.77
2019-01-25T21:11:48.119Z,34.57
2019-01-25T21:14:31.095Z,40.63
2019-01-25T21:17:12.668Z,36.73
2019-01-25T21:19:54.930Z,39.00
2019-01-25T21:22:36.720Z,34.53
2019-01-25T21:25:18.941Z,35.13
2019-01-25T21:28:00.492Z,36.33
2019-01-25T21:30:42.294Z,37.13
2019-01-25T21:33:23.263Z,36.77
2019-01-25T21:36:04.692Z,35.07
2019-01-25T21:38:46.804Z,34.43
2019-01-25T21:44:15.994Z,35.67
2019-01-25T21:46:58.293Z,36.77
2019-01-25T21:49:40.822Z,37.33
2019-01-25T21:52:23.580Z,33.73
2019-01-25T21:55:06.349Z,35.47
2019-01-25T21:57:47.924Z,34.10
2019-01-25T22:00:29.318Z,37.37
2019-01-25T22:05:57.087Z,33.23
2019-01-25T22:08:38.626Z,35.97
2019-01-25T22:11:20.373Z,33.30
2019-01-25T22:14:01.895Z,32.50
2019-01-25T22:16:43.702Z,34.10
2019-01-25T22:19:26.374Z,31.93
2019-01-25T22:22:08.765Z,30.90
2019-01-25T22:30:21.552Z,30.63
2019-01-25T22:32:51.621Z,31.33
2019-01-25T22:35:40.090Z,31.27
2019-01-25T22:38:28.515Z,31.83
2019-01-25T22:41:09.494Z,31.90
2019-01-25T22:43:51.803Z,29.73
2019-01-25T22:46:33.175Z,29.77
2019-01-25T22:49:15.526Z,31.20
2019-01-25T22:54:40.669Z,29.90
2019-01-25T22:57:23.147Z,30.10
2019-01-25T23:00:05.760Z,29.27
2019-01-25T23:02:47.103Z,30.20
2019-01-25T23:05:28.487Z,27.50
2019-01-25T23:08:09.293Z,28.33
2019-01-25T23:10:50.479Z,30.17
2019-01-25T23:13:32.267Z,27.73
2019-01-25T23:16:14.273Z,27.43
2019-01-25T23:19:00.879Z,25.70
2019-01-25T23:21:43.775Z,25.67
2019-01-25T23:24:29.138Z,25.53
2019-01-25T23:27:11.510Z,24.37
2019-01-25T23:29:53.231Z,26.20
2019-01-25T23:32:35.243Z,24.37
2019-01-25T23:35:16.322Z,25.23
2019-01-25T23:40:42.903Z,24.80
2019-01-25T23:46:13.916Z,23.33
2019-01-25T23:48:56.359Z,22.00
2019-01-25T23:51:38.895Z,22.47
2019-01-25T23:54:21.680Z,24.03
2019-01-25T23:57:03.968Z,22.73
2019-01-25T23:59:44.930Z,21.63
